createdAt,value
2023-05-11T00:02:07.954Z,5.57
2023-05-11T00:04:36.434Z,5.40
2023-05-11T00:07:03.610Z,5.25
2023-05-11T00:09:31.035Z,5.69
2023-05-11T00:11:58.190Z,6.33
2023-05-11T00:14:25.317Z,6.48
2023-05-11T00:16:52.315Z,6.34
2023-05-11T00:19:19.268Z,6.14
2023-05-11T00:21:46.735Z,5.94
2023-05-11T00:24:13.855Z,5.73
2023-05-11T00:26:41.070Z,5.56
2023-05-11T00:29:08.072Z,5.37
2023-05-11T00:31:35.407Z,5.19
2023-05-11T00:34:02.649Z,5.02
2023-05-11T00:36:29.882Z,5.50
2023-05-11T00:38:56.868Z,6.15
2023-05-11T00:41:23.941Z,6.26
2023-05-11T00:43:51.064Z,6.06
2023-05-11T00:46:18.133Z,5.78
2023-05-11T00:48:45.358Z,5.54
2023-05-11T00:51:13.511Z,5.31
2023-05-11T00:53:40.790Z,5.12
2023-05-11T00:56:07.821Z,4.97
2023-05-11T00:58:36.085Z,4.80
2023-05-11T01:01:03.708Z,5.26
2023-05-11T01:03:32.343Z,5.90
2023-05-11T01:06:17.792Z,6.01
2023-05-11T01:08:53.061Z,5.82
2023-05-11T01:11:28.980Z,5.56
2023-05-11T01:13:59.781Z,5.29
2023-05-11T01:16:26.923Z,5.04
2023-05-11T01:19:02.474Z,4.82
2023-05-11T01:21:34.301Z,4.64
2023-05-11T01:24:34.329Z,4.47
2023-05-11T01:27:23.848Z,5.15
2023-05-11T01:30:16.465Z,5.71
2023-05-11T01:32:44.015Z,5.67
2023-05-11T01:35:14.955Z,5.45
2023-05-11T01:37:41.930Z,5.17
2023-05-11T01:40:12.890Z,4.92
2023-05-11T01:42:42.534Z,4.68
2023-05-11T01:45:10.122Z,4.48
2023-05-11T01:47:37.445Z,4.32
2023-05-11T01:50:04.843Z,4.17
2023-05-11T01:52:33.679Z,4.67
2023-05-11T01:55:00.832Z,5.34
2023-05-11T01:57:27.870Z,5.45
2023-05-11T01:59:55.047Z,5.29
2023-05-11T02:02:22.392Z,5.06
2023-05-11T02:04:49.744Z,4.82
2023-05-11T02:07:17.501Z,4.60
2023-05-11T02:09:44.596Z,4.41
2023-05-11T02:12:12.508Z,4.23
2023-05-11T02:14:39.762Z,4.68
2023-05-11T02:17:07.652Z,5.31
2023-05-11T02:19:36.313Z,5.42
2023-05-11T02:22:03.708Z,5.25
2023-05-11T02:24:32.048Z,5.00
2023-05-11T02:26:59.341Z,4.75
2023-05-11T02:29:26.532Z,4.43
2023-05-11T02:31:57.474Z,4.17
2023-05-11T02:34:28.966Z,4.00
2023-05-11T02:36:59.259Z,3.87
2023-05-11T02:39:31.128Z,4.39
2023-05-11T02:41:58.697Z,5.04
2023-05-11T02:44:28.842Z,5.15
2023-05-11T02:46:56.721Z,5.02
2023-05-11T02:49:24.076Z,4.80
2023-05-11T02:51:51.792Z,4.54
2023-05-11T02:54:19.580Z,4.30
2023-05-11T02:56:49.050Z,4.13
2023-05-11T02:59:16.298Z,3.97
2023-05-11T03:01:43.683Z,4.46
2023-05-11T03:04:11.324Z,5.12
2023-05-11T03:06:38.471Z,5.27
2023-05-11T03:09:09.335Z,5.16
2023-05-11T03:11:40.080Z,4.98
2023-05-11T03:14:07.205Z,4.81
2023-05-11T03:16:34.747Z,4.68
2023-05-11T03:19:02.221Z,4.57
2023-05-11T03:21:29.750Z,4.46
2023-05-11T03:23:56.929Z,5.04
2023-05-11T03:26:23.924Z,5.78
2023-05-11T03:28:51.141Z,5.98
2023-05-11T03:31:19.062Z,5.88
2023-05-11T03:33:46.786Z,5.68
2023-05-11T03:36:14.298Z,5.54
2023-05-11T03:38:41.333Z,5.41
2023-05-11T03:41:11.710Z,5.31
2023-05-11T03:43:38.716Z,5.22
2023-05-11T03:46:06.324Z,5.18
2023-05-11T03:48:33.705Z,5.78
2023-05-11T03:51:00.789Z,6.56
2023-05-11T03:53:28.221Z,6.78
2023-05-11T03:55:56.025Z,6.76
2023-05-11T03:58:23.441Z,6.69
2023-05-11T04:00:50.507Z,6.62
2023-05-11T04:03:18.208Z,6.55
2023-05-11T04:05:45.622Z,6.53
2023-05-11T04:08:13.392Z,6.51
2023-05-11T04:10:40.457Z,6.54
2023-05-11T04:13:08.165Z,6.59
2023-05-11T04:15:37.741Z,6.69
2023-05-11T04:18:05.073Z,6.78
2023-05-11T04:20:32.890Z,6.87
2023-05-11T04:22:59.984Z,6.99
2023-05-11T04:25:27.643Z,7.12
2023-05-11T04:27:54.704Z,7.26
2023-05-11T04:30:22.094Z,7.32
2023-05-11T04:32:49.414Z,7.32
2023-05-11T04:35:16.485Z,7.33
2023-05-11T04:37:43.467Z,7.43
2023-05-11T04:40:11.593Z,8.26
2023-05-11T04:42:41.044Z,9.31
2023-05-11T04:45:12.776Z,9.87
2023-05-11T04:47:40.057Z,10.17
2023-05-11T04:50:08.346Z,10.45
2023-05-11T04:52:37.584Z,10.73
2023-05-11T04:55:04.991Z,11.09
2023-05-11T04:57:33.266Z,11.59
2023-05-11T05:00:01.203Z,12.11
2023-05-11T05:02:29.651Z,12.61
2023-05-11T05:04:56.561Z,13.09
2023-05-11T05:07:24.258Z,13.56
2023-05-11T05:09:51.319Z,13.97
2023-05-11T05:12:18.924Z,14.38
2023-05-11T05:14:46.333Z,14.76
2023-05-11T05:17:13.652Z,14.92
2023-05-11T05:19:41.727Z,15.10
2023-05-11T05:22:08.761Z,15.28
2023-05-11T05:24:36.986Z,15.40
2023-05-11T05:27:04.819Z,15.56
2023-05-11T05:29:31.889Z,15.70
2023-05-11T05:31:59.955Z,15.91
2023-05-11T05:34:27.484Z,16.24
2023-05-11T05:36:54.468Z,16.58
2023-05-11T05:39:21.457Z,16.90
2023-05-11T05:41:48.639Z,17.16
2023-05-11T05:44:15.698Z,17.32
2023-05-11T05:46:42.975Z,17.40
2023-05-11T05:49:09.947Z,17.62
2023-05-11T05:51:37.781Z,17.95
2023-05-11T05:54:05.499Z,18.28
2023-05-11T05:56:35.182Z,18.53
2023-05-11T05:59:02.240Z,18.75
2023-05-11T06:01:30.413Z,19.00
2023-05-11T06:03:58.099Z,19.22
2023-05-11T06:06:26.103Z,19.51
2023-05-11T06:08:53.777Z,19.83
2023-05-11T06:11:21.911Z,20.22
2023-05-11T06:13:49.026Z,20.58
2023-05-11T06:16:16.031Z,20.90
2023-05-11T06:18:43.034Z,21.26
2023-05-11T06:21:10.915Z,21.61
2023-05-11T06:23:38.113Z,21.70
2023-05-11T06:26:05.156Z,21.85
2023-05-11T06:28:32.654Z,22.08
2023-05-11T06:31:03.853Z,22.24
2023-05-11T06:33:33.620Z,22.52
2023-05-11T06:36:07.383Z,22.26
2023-05-11T06:38:35.714Z,22.29
2023-05-11T06:41:02.789Z,21.96
2023-05-11T06:43:31.743Z,21.65
2023-05-11T06:46:01.511Z,21.09
2023-05-11T06:48:30.004Z,20.89
2023-05-11T06:50:58.716Z,20.75
2023-05-11T06:53:25.651Z,20.83
2023-05-11T06:55:54.739Z,21.11
2023-05-11T06:58:21.717Z,21.11
2023-05-11T07:00:48.704Z,20.94
2023-05-11T07:03:15.976Z,21.23
2023-05-11T07:05:43.256Z,21.01
2023-05-11T07:08:10.313Z,20.91
2023-05-11T07:10:38.000Z,20.74
2023-05-11T07:13:05.699Z,20.88
2023-05-11T07:15:32.717Z,21.00
2023-05-11T07:18:01.503Z,20.82
2023-05-11T07:20:28.743Z,21.25
2023-05-11T07:22:59.426Z,21.44
2023-05-11T07:25:26.610Z,21.33
2023-05-11T07:27:53.565Z,21.11
2023-05-11T07:30:21.042Z,21.25
2023-05-11T07:32:50.751Z,21.10
2023-05-11T07:35:17.714Z,20.86
2023-05-11T07:37:44.835Z,20.37
2023-05-11T07:40:12.285Z,20.19
2023-05-11T07:42:39.635Z,20.61
2023-05-11T07:45:07.595Z,21.02
2023-05-11T07:47:36.938Z,21.75
2023-05-11T07:50:04.414Z,21.93
2023-05-11T07:52:31.716Z,21.18
2023-05-11T07:54:58.756Z,20.86
2023-05-11T07:57:26.090Z,20.91
2023-05-11T07:59:53.191Z,20.96
2023-05-11T08:02:20.378Z,21.04
2023-05-11T08:04:47.462Z,21.11
2023-05-11T08:07:14.766Z,21.17
2023-05-11T08:09:41.686Z,21.61
2023-05-11T08:12:10.493Z,21.68
2023-05-11T08:14:37.972Z,21.87
2023-05-11T08:17:05.901Z,22.08
2023-05-11T08:19:32.970Z,21.64
2023-05-11T08:22:01.282Z,21.58
2023-05-11T08:24:29.015Z,20.74
2023-05-11T08:26:56.829Z,21.34
2023-05-11T08:29:27.378Z,21.85
2023-05-11T08:31:54.567Z,22.24
2023-05-11T08:34:22.523Z,22.35
2023-05-11T08:36:49.719Z,22.10
2023-05-11T08:39:24.940Z,22.35
2023-05-11T08:42:00.680Z,22.59
2023-05-11T08:44:27.685Z,22.33
2023-05-11T08:47:08.627Z,21.75
2023-05-11T08:49:42.170Z,21.78
2023-05-11T08:52:09.141Z,21.41
2023-05-11T08:54:36.188Z,21.64
2023-05-11T08:57:03.185Z,21.10
2023-05-11T08:59:30.538Z,21.34
2023-05-11T09:01:57.474Z,21.31
2023-05-11T09:04:24.405Z,21.28
2023-05-11T09:06:51.628Z,21.00
2023-05-11T09:09:18.515Z,20.87
2023-05-11T09:11:45.962Z,20.62
2023-05-11T09:14:13.134Z,20.94
2023-05-11T09:16:40.144Z,21.51
2023-05-11T09:19:07.620Z,21.91
2023-05-11T09:21:35.898Z,21.79
2023-05-11T09:24:02.923Z,21.29
2023-05-11T09:26:32.495Z,21.75
2023-05-11T09:31:43.678Z,22.86
2023-05-11T09:34:17.416Z,23.17
2023-05-11T09:36:45.744Z,22.67
2023-05-11T09:39:28.455Z,22.18
2023-05-11T09:48:22.358Z,19.93
2023-05-11T09:50:50.251Z,21.53
2023-05-11T09:53:17.935Z,21.90
2023-05-11T09:55:52.143Z,22.46
2023-05-11T09:58:19.229Z,22.86
2023-05-11T10:00:51.285Z,23.18
2023-05-11T10:03:18.452Z,23.08
2023-05-11T10:06:01.460Z,23.39
2023-05-11T10:08:30.381Z,23.19
2023-05-11T10:10:57.752Z,22.87
2023-05-11T10:13:25.017Z,22.67
2023-05-11T10:15:52.295Z,22.92
2023-05-11T10:18:20.348Z,23.04
2023-05-11T10:20:47.802Z,23.40
2023-05-11T10:23:15.185Z,23.63
2023-05-11T10:25:42.309Z,23.47
2023-05-11T10:28:09.559Z,23.61
2023-05-11T10:30:37.498Z,23.67
2023-05-11T10:33:05.268Z,23.49
2023-05-11T10:35:32.865Z,22.42
2023-05-11T10:37:59.847Z,21.55
2023-05-11T10:40:27.270Z,21.41
2023-05-11T10:43:12.816Z,20.89
2023-05-11T10:45:52.262Z,20.78
2023-05-11T10:48:52.236Z,21.11
2023-05-11T10:51:44.103Z,20.92
2023-05-11T10:54:59.491Z,20.37
2023-05-11T10:58:03.671Z,19.84
2023-05-11T11:00:58.690Z,19.54
2023-05-11T11:03:25.900Z,19.90
2023-05-11T11:05:52.894Z,20.05
2023-05-11T11:08:20.318Z,19.78
2023-05-11T11:10:49.461Z,19.56
2023-05-11T11:13:17.539Z,20.11
2023-05-11T11:15:54.078Z,20.36
2023-05-11T11:18:22.563Z,20.35
2023-05-11T11:20:50.862Z,19.96
2023-05-11T11:23:43.850Z,19.93
2023-05-11T11:26:15.861Z,19.77
2023-05-11T11:28:55.075Z,19.81
2023-05-11T11:31:26.363Z,20.17
2023-05-11T11:33:58.706Z,20.81
2023-05-11T11:37:04.134Z,21.22
2023-05-11T11:39:43.519Z,21.51
2023-05-11T11:42:15.288Z,22.11
2023-05-11T11:44:42.921Z,22.09
2023-05-11T11:47:13.782Z,21.87
2023-05-11T11:49:43.026Z,21.85
2023-05-11T11:52:36.135Z,22.55
2023-05-11T11:55:04.182Z,22.72
2023-05-11T11:57:34.751Z,22.63
2023-05-11T12:00:05.782Z,23.18
2023-05-11T12:02:43.318Z,23.27
2023-05-11T12:05:18.418Z,22.90
2023-05-11T15:45:35.212Z,17.13
2023-05-11T15:48:02.878Z,17.76
2023-05-11T15:50:30.381Z,18.03
2023-05-11T15:52:57.522Z,18.24
2023-05-11T15:55:26.842Z,18.28
2023-05-11T15:57:54.561Z,18.24
2023-05-11T16:00:21.717Z,18.13
2023-05-11T16:02:49.475Z,18.19
2023-05-11T16:05:16.681Z,18.18
2023-05-11T16:07:44.114Z,18.28
2023-05-11T16:10:11.373Z,18.28
2023-05-11T16:12:38.423Z,18.25
2023-05-11T16:15:06.825Z,18.27
2023-05-11T16:17:34.100Z,18.04
2023-05-11T16:20:01.316Z,18.00
2023-05-11T16:22:28.852Z,18.10
2023-05-11T16:24:55.850Z,18.11
2023-05-11T16:27:23.180Z,18.10
2023-05-11T16:29:51.223Z,18.01
2023-05-11T16:32:20.283Z,18.00
2023-05-11T16:34:47.485Z,17.99
2023-05-11T16:37:14.432Z,17.80
2023-05-11T16:39:41.516Z,17.80
2023-05-11T16:42:08.495Z,17.60
2023-05-11T16:44:36.035Z,17.60
2023-05-11T16:47:03.674Z,17.65
2023-05-11T16:49:30.745Z,17.40
2023-05-11T16:51:57.668Z,17.28
2023-05-11T16:54:27.053Z,17.31
2023-05-11T16:56:54.068Z,17.19
2023-05-11T16:59:21.126Z,17.13
2023-05-11T17:01:48.167Z,17.13
2023-05-11T17:04:15.236Z,17.12
2023-05-11T17:06:42.418Z,17.10
2023-05-11T17:09:09.487Z,16.97
2023-05-11T17:11:37.138Z,16.95
2023-05-11T17:14:04.214Z,16.89
2023-05-11T17:16:31.357Z,16.77
2023-05-11T17:18:59.313Z,16.67
2023-05-11T17:21:26.333Z,16.61
2023-05-11T17:23:53.337Z,16.49
2023-05-11T17:26:21.184Z,16.43
2023-05-11T17:28:52.127Z,16.36
2023-05-11T17:31:19.203Z,16.24
2023-05-11T17:33:47.413Z,16.14
2023-05-11T17:36:14.477Z,16.05
2023-05-11T17:38:43.293Z,15.93
2023-05-11T17:41:10.315Z,15.89
2023-05-11T17:43:38.093Z,15.87
2023-05-11T17:46:05.638Z,15.74
2023-05-11T17:48:33.251Z,15.70
2023-05-11T17:51:00.343Z,15.70
2023-05-11T17:53:27.472Z,15.69
2023-05-11T17:55:54.487Z,15.59
2023-05-11T17:58:21.862Z,15.55
2023-05-11T18:00:49.520Z,15.44
2023-05-11T18:03:17.558Z,15.36
2023-05-11T18:05:49.064Z,15.24
2023-05-11T18:08:16.877Z,15.14
2023-05-11T18:10:44.628Z,15.21
2023-05-11T18:13:12.242Z,15.04
2023-05-11T18:15:39.393Z,15.14
2023-05-11T18:18:06.502Z,14.99
2023-05-11T18:20:33.788Z,15.05
2023-05-11T18:23:00.806Z,14.99
2023-05-11T18:25:31.956Z,15.02
2023-05-11T18:28:02.267Z,14.93
2023-05-11T18:30:29.781Z,14.84
2023-05-11T18:32:56.954Z,14.84
2023-05-11T18:35:24.154Z,14.78
2023-05-11T18:37:51.159Z,14.72
2023-05-11T18:40:18.651Z,14.64
2023-05-11T18:42:47.306Z,14.56
2023-05-11T18:45:14.570Z,14.49
2023-05-11T18:47:46.266Z,14.46
2023-05-11T18:50:14.198Z,14.36
2023-05-11T18:52:41.740Z,14.28
2023-05-11T18:55:09.666Z,14.18
2023-05-11T18:57:39.448Z,14.05
2023-05-11T19:00:07.173Z,13.87
2023-05-11T19:02:34.800Z,13.70
2023-05-11T19:05:02.146Z,13.55
2023-05-11T19:07:29.369Z,13.42
2023-05-11T19:09:56.552Z,13.30
2023-05-11T19:12:23.638Z,13.20
2023-05-11T19:14:55.416Z,13.11
2023-05-11T19:17:23.296Z,13.01
2023-05-11T19:19:51.470Z,12.91
2023-05-11T19:22:21.631Z,12.80
2023-05-11T19:24:49.057Z,12.69
2023-05-11T19:27:17.340Z,12.60
2023-05-11T19:29:47.848Z,12.50
2023-05-11T19:32:15.760Z,12.41
2023-05-11T19:34:43.948Z,12.33
2023-05-11T19:37:10.834Z,12.27
2023-05-11T19:39:37.832Z,12.21
2023-05-11T19:42:04.894Z,12.13
2023-05-11T19:44:33.235Z,12.06
2023-05-11T19:47:00.305Z,11.97
2023-05-11T19:49:28.222Z,11.90
2023-05-11T19:51:55.232Z,11.83
2023-05-11T19:54:22.344Z,11.77
2023-05-11T19:56:49.831Z,11.69
2023-05-11T19:59:16.804Z,11.62
2023-05-11T20:01:44.472Z,11.56
2023-05-11T20:04:12.795Z,11.52
2023-05-11T20:06:39.915Z,11.48
2023-05-11T20:09:07.328Z,11.44
2023-05-11T20:11:34.612Z,11.39
2023-05-11T20:14:01.540Z,11.35
2023-05-11T20:16:30.539Z,11.29
2023-05-11T20:18:59.425Z,11.21
2023-05-11T20:21:26.570Z,11.14
2023-05-11T20:23:53.600Z,11.06
2023-05-11T20:26:20.575Z,10.97
2023-05-11T20:28:47.488Z,10.92
2023-05-11T20:31:14.537Z,10.86
2023-05-11T20:36:14.319Z,10.78
2023-05-11T20:38:41.511Z,10.75
2023-05-11T20:41:08.469Z,10.73
2023-05-11T20:43:35.724Z,10.68
2023-05-11T20:46:03.629Z,10.66
2023-05-11T20:48:40.338Z,10.63
2023-05-11T20:51:08.685Z,10.61
2023-05-11T20:53:36.002Z,10.62
2023-05-11T20:56:03.357Z,10.60
2023-05-11T20:58:31.632Z,10.60
2023-05-11T21:00:59.084Z,10.60
2023-05-11T21:03:26.934Z,10.61
2023-05-11T21:05:54.024Z,10.58
2023-05-11T21:08:21.962Z,10.56
2023-05-11T21:10:49.032Z,10.55
2023-05-11T21:13:16.456Z,10.52
2023-05-11T21:15:43.447Z,10.48
2023-05-11T21:18:10.619Z,10.43
2023-05-11T21:20:37.661Z,10.39
2023-05-11T21:23:04.830Z,10.34
2023-05-11T21:25:31.827Z,10.31
2023-05-11T21:28:01.014Z,10.28
2023-05-11T21:30:28.343Z,10.28
2023-05-11T21:32:55.449Z,10.24
2023-05-11T21:35:22.590Z,10.19
2023-05-11T21:37:50.086Z,10.15
2023-05-11T21:40:17.964Z,10.14
2023-05-11T21:42:45.420Z,10.12
2023-05-11T21:45:12.585Z,10.17
2023-05-11T21:47:40.550Z,10.24
2023-05-11T21:50:08.821Z,10.32
2023-05-11T21:52:36.981Z,10.43
2023-05-11T21:55:04.596Z,10.58
2023-05-11T21:57:32.015Z,10.68
2023-05-11T21:59:59.321Z,10.70
2023-05-11T22:02:27.196Z,10.78
2023-05-11T22:04:54.205Z,10.79
2023-05-11T22:07:21.312Z,10.79
2023-05-11T22:09:48.309Z,10.81
2023-05-11T22:12:15.269Z,10.82
2023-05-11T22:14:42.466Z,10.84
2023-05-11T22:17:10.990Z,10.79
2023-05-11T22:19:38.103Z,10.83
2023-05-11T22:22:05.320Z,10.86
2023-05-11T22:24:32.559Z,10.96
2023-05-11T22:26:59.520Z,10.97
2023-05-11T22:29:26.726Z,10.93
2023-05-11T22:31:53.835Z,10.91
2023-05-11T22:34:23.556Z,10.91
2023-05-11T22:36:50.621Z,10.89
2023-05-11T22:39:18.161Z,10.90
2023-05-11T22:41:45.154Z,10.86
2023-05-11T22:44:12.372Z,10.83
2023-05-11T22:46:39.336Z,10.86
2023-05-11T22:49:06.434Z,10.85
2023-05-11T22:51:33.390Z,10.84
2023-05-11T22:54:00.311Z,10.84
2023-05-11T22:56:27.384Z,10.82
2023-05-11T22:58:56.155Z,10.79
2023-05-11T23:01:23.138Z,10.76
2023-05-11T23:03:50.354Z,10.74
2023-05-11T23:06:17.601Z,10.75
2023-05-11T23:08:44.674Z,10.82
2023-05-11T23:11:12.107Z,10.81
2023-05-11T23:13:40.098Z,10.74
2023-05-11T23:16:08.732Z,10.66
2023-05-11T23:18:35.828Z,10.55
2023-05-11T23:21:02.935Z,10.41
2023-05-11T23:23:30.005Z,10.31
2023-05-11T23:25:57.297Z,10.26
2023-05-11T23:28:30.477Z,10.20
2023-05-11T23:30:57.513Z,10.15
2023-05-11T23:33:24.554Z,10.06
2023-05-11T23:35:51.972Z,9.99
2023-05-11T23:38:19.389Z,9.91
2023-05-11T23:40:46.494Z,9.84
2023-05-11T23:43:13.554Z,9.77
2023-05-11T23:45:40.793Z,9.74
2023-05-11T23:48:07.852Z,9.65
2023-05-11T23:50:35.036Z,9.50
2023-05-11T23:53:02.095Z,9.38
2023-05-11T23:55:29.172Z,9.27
2023-05-11T23:57:58.784Z,9.14
